Time;durP1;ratioP1;P1;durP2;ratioP2;P2;SDS_P1;SDS_P2;PMS_P1;PMS_P2;Temp;Humidity;BMP_temperature;BMP_pressure;BME280_temperature;BME280_humidity;BME280_pressure;Samples;Min_cycle;Max_cycle;Signal;HPM_P1;HPM_P2
2024/04/01 00:01:08;;;;;;;24.55;3.88;;;18.70;78.20;;;;;;4996415;28;20026;-72
2024/04/01 00:03:35;;;;;;;21.80;3.35;;;18.80;78.30;;;;;;4996107;28;20026;-72
2024/04/01 00:06:01;;;;;;;25.63;3.35;;;18.80;78.30;;;;;;4996225;28;20027;-72
2024/04/01 00:08:27;;;;;;;25.55;3.20;;;18.80;78.30;;;;;;4996039;28;20389;-73
2024/04/01 00:10:53;;;;;;;27.60;3.75;;;18.80;78.40;;;;;;4996131;28;20030;-73
2024/04/01 00:13:20;;;;;;;19.05;3.47;;;18.80;78.40;;;;;;4996484;28;20026;-72
2024/04/01 00:15:46;;;;;;;23.00;3.42;;;18.70;78.50;;;;;;4994615;28;20038;-72
2024/04/01 00:18:13;;;;;;;29.25;3.92;;;18.80;78.50;;;;;;4995899;28;20045;-72
2024/04/01 00:20:39;;;;;;;29.10;2.97;;;18.70;78.60;;;;;;4995258;28;20381;-72
2024/04/01 00:23:06;;;;;;;21.33;3.20;;;18.70;78.70;;;;;;4995961;28;20030;-72
2024/04/01 00:25:33;;;;;;;28.38;3.50;;;18.70;78.80;;;;;;4996047;28;20037;-72
2024/04/01 00:27:59;;;;;;;20.75;3.50;;;18.70;78.70;;;;;;4996439;28;20038;-72
2024/04/01 00:30:26;;;;;;;18.08;3.13;;;18.70;78.80;;;;;;4995731;28;20059;-72
2024/04/01 00:32:52;;;;;;;23.25;3.22;;;18.70;78.80;;;;;;4995664;28;20037;-72
2024/04/01 00:35:18;;;;;;;21.75;3.60;;;18.70;78.90;;;;;;4995814;28;20022;-72
2024/04/01 00:37:44;;;;;;;20.83;3.13;;;18.70;79.00;;;;;;4993637;28;20047;-73
2024/04/01 00:40:11;;;;;;;18.67;3.63;;;18.60;79.00;;;;;;4995837;28;20038;-73
2024/04/01 00:42:38;;;;;;;34.58;3.88;;;18.60;79.00;;;;;;4995693;28;20034;-72
2024/04/01 00:45:05;;;;;;;32.38;3.85;;;18.60;79.10;;;;;;4995644;28;20033;-72
2024/04/01 00:47:31;;;;;;;33.25;4.00;;;18.60;79.30;;;;;;4995708;28;20496;-73
2024/04/01 00:49:58;;;;;;;22.80;3.38;;;18.50;79.40;;;;;;4995613;28;20393;-72
2024/04/01 00:52:27;;;;;;;23.40;4.22;;;18.50;79.40;;;;;;4995007;28;20388;-72
2024/04/01 00:54:54;;;;;;;28.48;3.22;;;18.50;79.50;;;;;;4995188;28;20034;-73
2024/04/01 00:57:21;;;;;;;30.38;3.80;;;18.50;79.70;;;;;;4993441;28;20042;-72
2024/04/01 00:59:49;;;;;;;26.83;3.63;;;18.40;79.80;;;;;;4995387;28;20457;-72
2024/04/01 01:02:16;;;;;;;26.08;3.58;;;18.40;80.60;;;;;;4995306;28;20030;-72
2024/04/01 01:04:44;;;;;;;28.85;4.00;;;18.40;80.30;;;;;;4994996;28;20026;-72
2024/04/01 01:07:12;;;;;;;24.55;3.80;;;18.40;80.40;;;;;;4995206;28;20026;-72
2024/04/01 01:09:39;;;;;;;23.42;3.72;;;18.40;80.50;;;;;;4994912;28;20057;-72
2024/04/01 01:12:06;;;;;;;28.02;3.38;;;18.40;80.30;;;;;;4995454;28;20029;-72
2024/04/01 01:14:33;;;;;;;27.92;3.55;;;18.40;80.30;;;;;;4995232;28;20037;-72
2024/04/01 01:16:59;;;;;;;30.55;3.92;;;18.40;80.40;;;;;;4994541;28;20034;-72
2024/04/01 01:19:27;;;;;;;27.98;3.33;;;18.40;80.30;;;;;;4994837;28;20038;-72
2024/04/01 01:22:06;;;;;;;16.05;2.95;;;18.50;80.60;;;;;;4994134;28;20045;-72
2024/04/01 01:24:33;;;;;;;24.73;3.55;;;18.40;80.80;;;;;;4994783;28;20450;-72
2024/04/01 01:27:00;;;;;;;28.00;4.07;;;18.40;80.40;;;;;;4994458;28;20380;-72
2024/04/01 01:29:31;;;;;;;22.67;3.55;;;18.40;80.30;;;;;;4994770;28;20081;-72
2024/04/01 01:32:01;;;;;;;23.88;3.50;;;18.40;80.30;;;;;;4994294;28;20031;-73
2024/04/01 01:34:28;;;;;;;24.05;3.38;;;18.40;80.20;;;;;;4995389;28;20388;-72
2024/04/01 01:36:56;;;;;;;33.00;3.85;;;18.40;80.00;;;;;;4994218;28;20038;-72
2024/04/01 01:39:22;;;;;;;30.88;3.95;;;18.40;79.90;;;;;;4994260;28;20038;-72
2024/04/01 01:41:49;;;;;;;20.40;3.70;;;18.40;79.80;;;;;;4994679;28;20425;-72
2024/04/01 01:44:15;;;;;;;30.30;3.92;;;18.40;79.70;;;;;;4994494;28;20041;-72
2024/04/01 01:46:41;;;;;;;22.13;3.05;;;18.40;79.50;;;;;;4994929;28;20487;-72
2024/04/01 01:49:07;;;;;;;33.47;4.22;;;18.50;79.60;;;;;;4994262;28;20019;-72
2024/04/01 01:51:33;;;;;;;24.05;4.15;;;18.50;79.50;;;;;;4994439;28;20041;-72
2024/04/01 01:54:00;;;;;;;33.75;3.65;;;18.50;79.40;;;;;;4994268;28;20027;-72
2024/04/01 01:56:26;;;;;;;18.65;4.00;;;18.40;79.20;;;;;;4994089;28;20477;-71
2024/04/01 01:58:52;;;;;;;24.73;4.18;;;18.50;79.30;;;;;;4994171;28;20038;-72
2024/04/01 02:01:18;;;;;;;26.92;3.67;;;18.50;79.20;;;;;;4994166;28;20022;-73
2024/04/01 02:03:45;;;;;;;25.23;3.65;;;18.50;79.10;;;;;;4994309;28;20484;-73
2024/04/01 02:06:11;;;;;;;21.38;3.70;;;18.50;79.20;;;;;;4994106;28;20026;-72
2024/04/01 02:08:38;;;;;;;29.40;4.57;;;18.50;79.20;;;;;;4997426;28;20362;-72
2024/04/01 02:11:04;;;;;;;24.05;4.07;;;18.50;79.20;;;;;;4999023;28;20026;-72
2024/04/01 02:13:30;;;;;;;30.85;4.55;;;18.50;79.20;;;;;;4998187;28;20042;-73
2024/04/01 02:16:10;;;;;;;32.75;3.65;;;18.50;79.40;;;;;;4998235;28;20029;-72
2024/04/01 02:18:37;;;;;;;21.38;3.30;;;18.50;79.30;;;;;;4998575;28;20049;-72
2024/04/01 02:21:03;;;;;;;26.15;3.95;;;18.50;79.20;;;;;;4998293;28;20031;-72
2024/04/01 02:23:33;;;;;;;27.77;4.05;;;18.60;79.10;;;;;;4997998;28;20038;-72
2024/04/01 02:26:01;;;;;;;26.42;4.20;;;18.60;79.10;;;;;;4998124;28;20022;-73
2024/04/01 02:28:30;;;;;;;19.92;3.88;;;18.60;79.00;;;;;;4998431;28;20027;-72
2024/04/01 02:30:56;;;;;;;17.30;3.45;;;18.60;79.10;;;;;;4997943;28;20027;-73
2024/04/01 02:33:23;;;;;;;31.88;3.67;;;18.60;79.10;;;;;;4997730;28;20026;-72
2024/04/01 02:35:50;;;;;;;30.27;4.10;;;18.60;79.10;;;;;;4998103;28;20033;-72
2024/04/01 02:38:18;;;;;;;27.02;3.47;;;18.60;79.10;;;;;;4997546;28;20485;-72
2024/04/01 02:40:44;;;;;;;34.92;4.55;;;18.70;79.10;;;;;;4997711;28;20053;-73
2024/04/01 02:43:11;;;;;;;28.80;4.00;;;18.70;79.00;;;;;;4997497;28;20485;-72
2024/04/01 02:45:41;;;;;;;23.30;4.03;;;18.70;79.00;;;;;;4997645;28;20376;-72
2024/04/01 02:48:07;;;;;;;32.47;4.07;;;18.70;79.00;;;;;;4997492;28;20041;-72
2024/04/01 02:50:34;;;;;;;29.85;4.43;;;18.60;78.90;;;;;;4997673;28;20389;-72
2024/04/01 02:53:00;;;;;;;29.45;4.45;;;18.60;78.80;;;;;;4997471;28;20022;-73
2024/04/01 02:55:27;;;;;;;32.88;3.80;;;18.60;78.80;;;;;;4997388;28;20384;-72
2024/04/01 02:57:53;;;;;;;18.67;4.75;;;18.50;78.60;;;;;;4997304;28;20045;-72
2024/04/01 03:00:22;;;;;;;22.77;3.67;;;18.50;78.40;;;;;;4997234;28;20368;-72
2024/04/01 03:02:48;;;;;;;17.98;3.38;;;18.50;78.50;;;;;;4997291;28;20476;-72
2024/04/01 03:05:16;;;;;;;30.73;3.88;;;18.50;78.40;;;;;;4997037;28;20031;-72
2024/04/01 03:07:43;;;;;;;27.27;4.38;;;18.50;78.30;;;;;;4997374;28;20371;-72
2024/04/01 03:10:11;;;;;;;26.02;4.47;;;18.50;78.00;;;;;;4996872;28;20054;-72
2024/04/01 03:12:41;;;;;;;29.10;4.20;;;18.50;77.90;;;;;;4997716;28;20030;-72
2024/04/01 03:15:09;;;;;;;35.10;4.22;;;18.50;77.90;;;;;;4996271;28;20034;-72
2024/04/01 03:17:35;;;;;;;27.92;4.22;;;18.50;77.80;;;;;;4997088;28;20057;-72
2024/04/01 03:20:01;;;;;;;35.85;3.92;;;18.60;77.80;;;;;;4996520;28;20042;-73
2024/04/01 03:22:28;;;;;;;25.52;4.43;;;18.60;77.80;;;;;;4997000;28;20026;-73
2024/04/01 03:24:55;;;;;;;23.52;4.00;;;18.60;77.70;;;;;;4996865;28;20465;-73
2024/04/01 03:27:22;;;;;;;35.40;4.03;;;18.60;77.80;;;;;;4996790;28;20034;-73
2024/04/01 03:29:48;;;;;;;20.58;3.80;;;18.60;77.90;;;;;;4996859;28;20029;-72
2024/04/01 03:32:16;;;;;;;17.33;3.78;;;18.60;78.10;;;;;;4996791;28;20033;-73
2024/04/01 03:34:50;;;;;;;29.30;3.15;;;18.60;78.10;;;;;;4996764;28;20038;-73
2024/04/01 03:37:16;;;;;;;29.73;4.25;;;18.60;78.20;;;;;;4996716;28;20342;-72
2024/04/01 03:39:46;;;;;;;27.13;3.92;;;18.50;78.20;;;;;;4996497;28;20038;-72
2024/04/01 03:42:13;;;;;;;31.38;3.60;;;18.50;78.30;;;;;;4996796;28;20377;-73
2024/04/01 03:44:40;;;;;;;28.08;4.53;;;18.50;78.50;;;;;;4996555;28;20037;-72
2024/04/01 03:47:07;;;;;;;22.20;3.78;;;18.40;78.50;;;;;;4996717;28;20030;-73
2024/04/01 03:49:34;;;;;;;24.35;3.63;;;18.40;78.60;;;;;;4996544;28;20037;-73
2024/04/01 03:52:00;;;;;;;22.60;3.33;;;18.40;78.70;;;;;;4996447;28;20033;-72
2024/04/01 03:54:26;;;;;;;25.42;3.78;;;18.40;78.90;;;;;;4995721;28;20033;-73
2024/04/01 03:56:53;;;;;;;25.90;4.07;;;18.30;78.90;;;;;;4995726;28;20030;-72
2024/04/01 03:59:19;;;;;;;17.02;3.85;;;18.30;78.80;;;;;;4996345;28;20045;-72
2024/04/01 04:01:45;;;;;;;25.88;4.45;;;18.30;78.90;;;;;;4996509;28;20049;-73
2024/04/01 04:04:11;;;;;;;30.58;4.28;;;18.30;78.90;;;;;;4996686;28;20023;-72
2024/04/01 04:06:38;;;;;;;27.20;3.92;;;18.30;78.80;;;;;;4995392;28;20465;-73
2024/04/01 04:09:15;;;;;;;28.52;4.07;;;18.30;78.70;;;;;;4996040;28;20046;-72
2024/04/01 04:11:43;;;;;;;19.42;3.47;;;18.40;78.40;;;;;;4996144;28;20031;-72
2024/04/01 04:14:09;;;;;;;27.15;4.35;;;18.50;78.60;;;;;;4996350;28;20022;-74
2024/04/01 04:16:35;;;;;;;36.38;4.53;;;18.50;78.30;;;;;;4996014;28;20030;-73
2024/04/01 04:19:01;;;;;;;28.05;3.53;;;18.60;78.10;;;;;;4996241;28;20064;-72
2024/04/01 04:21:28;;;;;;;22.83;3.75;;;18.70;77.90;;;;;;4995879;28;20038;-72
2024/04/01 04:23:55;;;;;;;28.83;4.80;;;18.70;78.00;;;;;;4995828;28;20484;-72
2024/04/01 04:26:21;;;;;;;27.05;3.72;;;18.80;77.60;;;;;;4995624;28;20469;-72
2024/04/01 04:28:47;;;;;;;25.13;3.30;;;18.80;77.40;;;;;;4995754;28;20034;-73
2024/04/01 04:31:15;;;;;;;37.33;4.72;;;18.80;77.60;;;;;;4995540;28;20384;-73
2024/04/01 04:33:41;;;;;;;28.38;4.35;;;18.90;77.60;;;;;;4994893;28;20034;-72
2024/04/01 04:36:07;;;;;;;23.95;3.72;;;18.90;77.00;;;;;;4995863;28;20030;-72
2024/04/01 04:38:33;;;;;;;32.22;3.90;;;18.90;77.20;;;;;;4995404;28;20038;-72
2024/04/01 04:40:59;;;;;;;30.33;4.15;;;19.00;77.20;;;;;;4995172;28;20045;-72
2024/04/01 04:43:26;;;;;;;25.73;4.68;;;19.00;76.90;;;;;;4995023;28;20034;-73
2024/04/01 04:45:52;;;;;;;25.55;4.10;;;19.00;76.80;;;;;;4995359;28;20503;-72
2024/04/01 04:48:18;;;;;;;33.42;4.35;;;19.00;76.60;;;;;;4995270;28;20030;-72
2024/04/01 04:50:44;;;;;;;33.38;4.15;;;19.00;76.30;;;;;;4995328;28;20062;-72
2024/04/01 04:53:10;;;;;;;25.83;4.07;;;19.00;76.50;;;;;;4995209;28;20034;-72
2024/04/01 04:55:39;;;;;;;35.95;3.97;;;19.00;76.30;;;;;;4995204;28;20034;-72
2024/04/01 04:58:06;;;;;;;34.67;5.75;;;19.10;76.30;;;;;;4994871;28;20037;-73
2024/04/01 05:00:33;;;;;;;26.50;3.72;;;19.10;76.10;;;;;;4995249;28;20026;-72
2024/04/01 05:02:59;;;;;;;39.60;5.72;;;19.10;76.10;;;;;;4994806;28;20485;-73
2024/04/01 05:05:25;;;;;;;49.70;4.97;;;19.20;75.40;;;;;;4994961;28;20380;-72
2024/04/01 05:07:52;;;;;;;34.15;4.28;;;19.20;76.00;;;;;;4994848;28;20026;-73
2024/04/01 05:10:18;;;;;;;29.50;3.60;;;19.20;75.90;;;;;;4995362;28;20042;-72
2024/04/01 05:12:44;;;;;;;24.17;3.97;;;19.30;76.20;;;;;;4994756;28;20026;-73
2024/04/01 05:15:10;;;;;;;28.77;4.18;;;19.30;76.20;;;;;;4987046;28;20050;-71
2024/04/01 05:17:38;;;;;;;36.38;4.75;;;19.30;76.10;;;;;;5002134;28;20033;-72
2024/04/01 05:20:05;;;;;;;34.40;4.15;;;19.20;76.00;;;;;;5005333;28;20045;-71
2024/04/01 05:22:31;;;;;;;26.08;4.68;;;19.20;75.50;;;;;;5001451;28;20034;-72
2024/04/01 05:24:57;;;;;;;30.77;4.22;;;19.20;75.00;;;;;;4999660;28;20054;-74
2024/04/01 05:27:24;;;;;;;37.63;4.47;;;19.30;75.70;;;;;;5001341;28;20018;-72
2024/04/01 05:30:10;;;;;;;28.40;4.70;;;19.30;75.50;;;;;;4995175;28;20377;-68
2024/04/01 05:32:37;;;;;;;19.45;4.07;;;19.30;74.70;;;;;;4992320;28;20377;-72
2024/04/01 05:35:05;;;;;;;33.60;4.70;;;19.30;74.60;;;;;;4994154;28;20026;-72
2024/04/01 05:37:35;;;;;;;36.53;5.05;;;19.40;75.20;;;;;;5024764;28;20046;-73
2024/04/01 05:40:01;;;;;;;29.48;3.95;;;19.40;75.30;;;;;;4994030;28;20473;-72
2024/04/01 05:42:27;;;;;;;36.40;4.80;;;19.40;74.20;;;;;;4993441;28;20417;-72
2024/04/01 05:44:54;;;;;;;28.50;4.75;;;19.40;74.20;;;;;;4993884;28;20380;-72
2024/04/01 05:47:20;;;;;;;31.65;4.78;;;19.40;74.40;;;;;;4993928;28;20473;-72
2024/04/01 05:49:46;;;;;;;27.92;4.50;;;19.50;74.40;;;;;;4994032;28;20023;-72
2024/04/01 05:52:12;;;;;;;40.22;5.55;;;19.50;74.30;;;;;;4993619;28;20464;-73
2024/04/01 05:54:39;;;;;;;25.02;4.15;;;19.50;74.20;;;;;;4993867;28;20484;-72
2024/04/01 05:57:05;;;;;;;27.80;4.30;;;19.60;73.60;;;;;;4993190;28;20033;-72
2024/04/01 05:59:31;;;;;;;22.38;3.85;;;19.60;74.30;;;;;;4993392;28;20038;-72
2024/04/01 06:01:57;;;;;;;28.25;4.38;;;19.60;73.80;;;;;;4993769;28;20037;-72
2024/04/01 06:04:25;;;;;;;32.75;5.10;;;19.60;74.10;;;;;;4993107;28;20038;-73
2024/04/01 06:06:52;;;;;;;25.27;4.07;;;19.50;73.90;;;;;;4993753;28;20461;-72
2024/04/01 06:09:18;;;;;;;23.15;4.13;;;19.50;72.70;;;;;;4993367;28;20496;-72
2024/04/01 06:11:45;;;;;;;32.90;4.90;;;19.50;73.20;;;;;;4993279;28;20465;-72
2024/04/01 06:14:11;;;;;;;18.30;3.92;;;19.50;73.70;;;;;;4993762;28;20045;-72
2024/04/01 06:16:38;;;;;;;28.70;5.07;;;19.50;73.50;;;;;;4993434;28;20054;-72
2024/04/01 06:19:05;;;;;;;36.95;4.63;;;19.60;73.90;;;;;;4993563;28;20389;-71
2024/04/01 06:21:32;;;;;;;40.22;4.18;;;19.60;73.80;;;;;;4993361;28;20030;-72
2024/04/01 06:23:59;;;;;;;31.05;4.07;;;19.60;73.70;;;;;;4993435;28;20043;-72
2024/04/01 06:26:28;;;;;;;30.52;4.28;;;19.60;73.00;;;;;;4992917;28;20030;-72
2024/04/01 06:28:55;;;;;;;31.75;5.00;;;19.60;73.90;;;;;;4993586;28;20026;-72
2024/04/01 06:31:21;;;;;;;39.67;4.78;;;19.60;72.90;;;;;;5010474;28;20059;-73
2024/04/01 06:33:47;;;;;;;32.17;4.65;;;19.60;74.00;;;;;;5012876;28;20029;-73
2024/04/01 06:36:14;;;;;;;27.60;4.20;;;19.70;73.80;;;;;;5013178;28;20022;-73
2024/04/01 06:38:40;;;;;;;31.33;4.72;;;19.60;73.60;;;;;;5012818;28;20029;-73
2024/04/01 06:41:06;;;;;;;26.90;3.67;;;19.70;73.90;;;;;;5012479;28;20045;-72
2024/04/01 06:43:33;;;;;;;30.55;4.57;;;19.70;73.80;;;;;;5012735;28;20033;-72
2024/04/01 06:46:01;;;;;;;24.92;4.03;;;19.70;74.00;;;;;;5011082;28;20045;-72
2024/04/01 06:48:28;;;;;;;26.38;4.30;;;19.80;74.10;;;;;;5012797;28;20037;-73
2024/04/01 06:50:54;;;;;;;21.20;4.05;;;19.80;73.70;;;;;;5012805;28;20476;-72
2024/04/01 06:53:21;;;;;;;28.58;3.75;;;19.90;73.90;;;;;;5013819;28;20377;-72
2024/04/01 06:55:48;;;;;;;22.20;4.05;;;19.90;74.00;;;;;;5016076;28;20033;-73
2024/04/01 06:58:15;;;;;;;33.22;4.18;;;19.90;73.70;;;;;;5016463;28;20030;-72
2024/04/01 07:00:41;;;;;;;22.33;4.03;;;20.00;73.90;;;;;;5003579;28;20046;-72
2024/04/01 07:03:08;;;;;;;27.30;3.95;;;20.00;73.40;;;;;;4996189;28;20050;-73
2024/04/01 07:05:35;;;;;;;36.95;4.22;;;20.10;74.00;;;;;;4996539;28;20026;-72
2024/04/01 07:08:02;;;;;;;32.17;4.35;;;20.20;73.80;;;;;;4996541;28;20026;-72
2024/04/01 07:10:29;;;;;;;28.45;4.25;;;20.20;73.90;;;;;;4996397;28;20034;-73
2024/04/01 07:12:56;;;;;;;24.20;4.63;;;20.20;73.70;;;;;;4996334;28;20030;-73
2024/04/01 07:15:23;;;;;;;27.15;3.35;;;20.30;73.90;;;;;;4996361;28;20041;-73
2024/04/01 07:17:51;;;;;;;22.95;3.63;;;20.30;73.20;;;;;;4994896;28;20046;-73
2024/04/01 07:20:17;;;;;;;36.13;4.40;;;20.40;73.50;;;;;;4996406;28;20388;-73
2024/04/01 07:22:43;;;;;;;23.40;5.05;;;20.40;73.50;;;;;;4996317;28;20031;-73
2024/04/01 07:25:10;;;;;;;23.98;4.32;;;20.40;73.60;;;;;;4996657;28;20488;-73
2024/04/01 07:27:36;;;;;;;29.02;4.95;;;20.50;73.60;;;;;;4995674;28;20484;-73
2024/04/01 07:30:04;;;;;;;33.15;4.07;;;20.50;73.20;;;;;;5003202;28;20133;-73
2024/04/01 07:32:31;;;;;;;27.08;4.13;;;20.60;73.40;;;;;;5015785;28;20032;-73
2024/04/01 07:34:58;;;;;;;26.35;4.03;;;20.60;72.80;;;;;;4999544;28;20026;-73
2024/04/01 07:37:29;;;;;;;23.65;4.32;;;20.60;73.40;;;;;;4997337;28;20022;-73
2024/04/01 07:39:55;;;;;;;30.58;3.65;;;20.60;73.30;;;;;;4996621;28;20453;-73
2024/04/01 07:42:22;;;;;;;17.48;3.92;;;20.60;72.80;;;;;;4996460;28;20397;-73
2024/04/01 07:44:50;;;;;;;29.30;4.32;;;20.70;72.60;;;;;;4996707;28;20350;-73
2024/04/01 07:47:17;;;;;;;26.15;4.80;;;20.70;73.00;;;;;;5027617;28;20043;-73
2024/04/01 07:49:43;;;;;;;30.80;4.25;;;20.80;72.60;;;;;;4995083;28;20027;-73
2024/04/01 07:52:09;;;;;;;21.63;3.85;;;20.80;72.70;;;;;;4996315;28;20037;-73
2024/04/01 07:54:36;;;;;;;26.55;4.80;;;20.90;71.30;;;;;;4995988;28;20400;-73
2024/04/01 07:57:05;;;;;;;36.92;4.25;;;20.90;72.00;;;;;;4995584;28;20469;-73
2024/04/01 07:59:33;;;;;;;39.17;4.88;;;20.90;71.60;;;;;;4993859;28;20031;-73
2024/04/01 08:02:00;;;;;;;24.45;3.60;;;21.00;71.70;;;;;;5024635;28;20035;-73
2024/04/01 08:04:27;;;;;;;28.27;4.18;;;21.10;71.70;;;;;;4994068;28;20026;-73
2024/04/01 08:06:55;;;;;;;38.65;4.47;;;21.20;72.00;;;;;;4994133;28;20023;-73
2024/04/01 08:09:22;;;;;;;26.55;4.25;;;21.30;71.60;;;;;;4994644;28;20053;-73
2024/04/01 08:11:51;;;;;;;17.70;3.92;;;21.40;71.60;;;;;;4995717;28;20441;-73
2024/04/01 08:14:18;;;;;;;27.77;4.10;;;21.40;71.60;;;;;;4995773;28;20034;-73
2024/04/01 08:16:45;;;;;;;27.92;4.22;;;21.40;69.90;;;;;;4995489;28;20034;-73
2024/04/01 08:19:12;;;;;;;36.63;4.20;;;21.50;71.50;;;;;;4996567;28;20381;-73
2024/04/01 08:21:38;;;;;;;34.08;3.97;;;21.60;70.20;;;;;;4995918;28;20393;-73
2024/04/01 08:24:04;;;;;;;30.95;4.55;;;21.70;70.90;;;;;;4995937;28;20032;-74
2024/04/01 08:26:31;;;;;;;33.38;4.43;;;21.80;71.20;;;;;;4995892;28;20018;-73
2024/04/01 08:28:57;;;;;;;22.35;4.35;;;21.90;71.20;;;;;;4996382;28;20026;-73
2024/04/01 08:31:23;;;;;;;38.40;4.63;;;21.90;71.00;;;;;;4995749;28;20042;-73
2024/04/01 08:33:51;;;;;;;25.70;3.70;;;22.00;70.10;;;;;;4995762;28;20122;-73
2024/04/01 08:36:17;;;;;;;34.75;4.80;;;22.00;70.20;;;;;;4995832;28;20030;-73
2024/04/01 08:38:44;;;;;;;34.35;4.47;;;22.00;69.80;;;;;;4995660;28;20461;-73
2024/04/01 08:41:52;;;;;;;20.48;3.95;;;22.10;70.20;;;;;;4995723;28;20453;-73
2024/04/01 08:44:20;;;;;;;33.30;4.75;;;22.10;68.90;;;;;;4954745;29;20031;-73
2024/04/01 08:46:52;;;;;;;38.17;4.10;;;22.10;68.60;;;;;;4989023;28;20129;-73
2024/04/01 08:49:40;;;;;;;34.33;4.82;;;22.20;68.00;;;;;;4995347;28;20053;-73
2024/04/01 08:52:11;;;;;;;22.48;4.30;;;22.30;67.50;;;;;;4995199;28;20030;-73
2024/04/01 08:54:40;;;;;;;37.88;4.80;;;22.40;68.70;;;;;;4995789;28;20338;-73
2024/04/01 08:57:06;;;;;;;32.78;4.75;;;22.50;69.70;;;;;;5026464;28;20035;-73
2024/04/01 08:59:34;;;;;;;54.28;4.75;;;22.50;69.40;;;;;;4995352;28;20030;-73
2024/04/01 09:02:01;;;;;;;29.45;4.13;;;22.60;69.60;;;;;;4995109;28;20352;-73
2024/04/01 09:04:29;;;;;;;32.72;4.55;;;22.70;69.70;;;;;;4995154;28;20042;-73
2024/04/01 09:06:57;;;;;;;23.40;4.30;;;22.80;69.70;;;;;;4995261;28;20026;-73
2024/04/01 09:09:23;;;;;;;24.77;3.90;;;22.80;69.70;;;;;;4994753;28;20043;-73
2024/04/01 09:11:51;;;;;;;34.00;4.15;;;22.90;69.40;;;;;;4995060;28;20030;-72
2024/04/01 09:14:17;;;;;;;29.13;4.75;;;23.00;69.00;;;;;;4995109;28;20037;-73
2024/04/01 09:16:48;;;;;;;29.25;4.40;;;23.10;69.00;;;;;;4994789;28;20023;-73
2024/04/01 09:19:16;;;;;;;27.25;5.47;;;23.10;68.70;;;;;;4995377;28;20023;-73
2024/04/01 09:21:42;;;;;;;20.58;3.80;;;23.10;66.80;;;;;;4995123;28;20031;-73
2024/04/01 09:24:10;;;;;;;34.03;4.22;;;23.20;68.10;;;;;;4994593;28;20102;-72
2024/04/01 09:26:36;;;;;;;38.25;4.85;;;23.20;67.70;;;;;;4994826;28;20460;-73
2024/04/01 09:29:03;;;;;;;33.80;4.65;;;23.30;67.40;;;;;;4994941;28;20060;-73
2024/04/01 09:31:29;;;;;;;31.85;4.35;;;23.40;68.50;;;;;;4994779;28;20026;-73
2024/04/01 09:33:55;;;;;;;30.98;4.93;;;23.40;66.00;;;;;;4994684;28;20102;-73
2024/04/01 09:36:23;;;;;;;36.15;5.07;;;23.50;67.40;;;;;;4994484;28;20042;-73
2024/04/01 09:38:52;;;;;;;30.80;4.85;;;23.60;68.30;;;;;;4994676;28;20052;-73
2024/04/01 09:41:18;;;;;;;28.75;4.55;;;23.70;66.70;;;;;;4994551;28;20030;-73
2024/04/01 09:43:44;;;;;;;35.78;5.30;;;23.70;65.70;;;;;;4994920;28;20480;-73
2024/04/01 09:46:12;;;;;;;28.40;4.75;;;23.70;67.80;;;;;;4994331;28;20030;-73
2024/04/01 09:48:39;;;;;;;29.10;4.85;;;23.80;67.90;;;;;;4994698;28;20026;-73
2024/04/01 09:51:11;;;;;;;38.15;5.50;;;23.80;66.50;;;;;;4994451;28;20046;-73
2024/04/01 09:53:37;;;;;;;27.55;4.22;;;23.90;65.30;;;;;;4994708;28;20018;-74
2024/04/01 09:56:30;;;;;;;43.88;5.65;;;24.00;65.90;;;;;;4994802;28;20041;-73
2024/04/01 09:58:56;;;;;;;;;;;24.10;61.10;;;;;;4995069;28;20030;-73
2024/04/01 10:01:56;;;;;;;38.30;5.30;;;24.20;59.60;;;;;;4994329;28;19909;-73
2024/04/01 10:04:39;;;;;;;35.05;5.05;;;24.30;61.70;;;;;;4994795;28;20053;-73
2024/04/01 10:07:23;;;;;;;28.60;5.82;;;24.30;60.50;;;;;;4995071;28;20393;-73
2024/04/01 10:10:20;;;;;;;27.75;3.80;;;24.40;60.10;;;;;;4994127;28;20057;-73
2024/04/01 10:13:04;;;;;;;47.25;5.22;;;24.50;57.60;;;;;;4994670;28;20033;-73
2024/04/01 10:15:52;;;;;;;34.60;5.93;;;24.60;59.90;;;;;;4994889;28;20034;-73
2024/04/01 10:18:58;;;;;;;52.65;5.97;;;24.70;59.70;;;;;;4994080;28;20030;-73
2024/04/01 10:22:01;;;;;;;47.85;5.75;;;24.80;57.80;;;;;;4974326;28;20059;-73
2024/04/01 10:24:42;;;;;;;;;;;24.80;57.70;;;;;;4994489;28;20039;-72
2024/04/01 10:27:41;;;;;;;31.35;4.45;;;24.90;56.80;;;;;;4994281;28;19906;-73
2024/04/01 10:30:49;;;;;;;41.83;6.38;;;24.90;58.30;;;;;;4975568;28;20046;-73
2024/04/01 10:33:42;;;;;;;39.75;5.35;;;25.00;57.90;;;;;;4978287;28;20034;-74
2024/04/01 10:36:46;;;;;;;27.17;4.55;;;25.10;58.10;;;;;;4997975;28;20030;-73
2024/04/01 10:39:46;;;;;;;27.38;5.47;;;25.20;59.30;;;;;;4997876;28;20404;-73
2024/04/01 10:42:31;;;;;;;34.72;4.65;;;25.20;56.90;;;;;;4997812;28;20465;-73
2024/04/01 10:45:21;;;;;;;38.65;5.35;;;25.30;58.40;;;;;;4998235;28;20027;-73
2024/04/01 10:48:09;;;;;;;39.70;5.30;;;25.40;57.40;;;;;;4997901;28;20037;-73
2024/04/01 10:51:11;;;;;;;31.75;4.70;;;25.40;57.90;;;;;;4997684;28;20038;-73
2024/04/01 10:54:07;;;;;;;33.80;4.45;;;25.50;57.00;;;;;;4997881;28;20026;-73
2024/04/01 10:57:21;;;;;;;29.88;4.97;;;25.60;55.50;;;;;;4997930;28;20491;-73
2024/04/01 11:00:15;;;;;;;45.42;5.43;;;25.70;55.70;;;;;;4997722;28;20045;-73
2024/04/01 11:02:44;;;;;;;35.22;5.43;;;25.70;56.50;;;;;;4998056;28;20384;-73
2024/04/01 11:05:19;;;;;;;38.15;5.63;;;25.80;57.90;;;;;;4997926;28;20038;-73
2024/04/01 11:08:11;;;;;;;33.55;5.30;;;25.90;57.80;;;;;;4997752;28;20026;-73
2024/04/01 11:10:49;;;;;;;37.70;5.77;;;26.00;56.20;;;;;;4997437;28;20034;-73
2024/04/01 11:13:22;;;;;;;50.63;6.32;;;26.10;57.60;;;;;;4997237;28;20030;-73
2024/04/01 11:15:55;;;;;;;30.92;5.03;;;26.10;58.50;;;;;;4997937;28;20034;-72
2024/04/01 11:18:33;;;;;;;29.42;5.30;;;26.20;57.50;;;;;;4997212;28;20034;-73
2024/04/01 11:21:33;;;;;;;34.83;6.13;;;26.30;55.70;;;;;;4997337;28;20049;-72
2024/04/01 11:24:11;;;;;;;42.65;5.78;;;26.40;55.90;;;;;;4983669;28;20038;-72
2024/04/01 11:27:02;;;;;;;34.03;4.75;;;26.40;56.20;;;;;;4997258;28;20030;-72
2024/04/01 11:29:50;;;;;;;25.50;4.93;;;26.40;57.60;;;;;;4997151;28;20035;-72
2024/04/01 11:32:24;;;;;;;41.03;5.80;;;26.50;54.20;;;;;;4996737;28;20472;-72
2024/04/01 11:35:14;;;;;;;38.40;6.22;;;26.60;56.90;;;;;;4996889;28;20026;-72
2024/04/01 11:38:12;;;;;;;34.30;5.72;;;26.70;57.00;;;;;;4997114;28;20034;-72
2024/04/01 11:40:40;;;;;;;30.35;5.10;;;26.70;57.00;;;;;;4994360;28;20484;-73
2024/04/01 11:43:10;;;;;;;41.17;6.10;;;26.80;55.40;;;;;;4996705;28;20479;-73
2024/04/01 11:45:41;;;;;;;29.00;5.55;;;26.80;56.40;;;;;;4996987;28;20027;-72
2024/04/01 11:48:09;;;;;;;35.20;6.30;;;26.70;54.40;;;;;;4996588;28;20019;-72
2024/04/01 11:50:35;;;;;;;33.03;5.65;;;26.70;55.30;;;;;;4996314;28;20034;-72
2024/04/01 11:53:05;;;;;;;35.70;5.43;;;26.70;54.80;;;;;;4995908;28;20469;-72
2024/04/01 11:55:32;;;;;;;35.53;5.82;;;26.80;53.80;;;;;;4996540;28;20029;-73
2024/04/01 11:58:12;;;;;;;35.22;6.35;;;26.90;56.80;;;;;;4996514;28;20586;-72
2024/04/01 12:00:51;;;;;;;32.97;4.90;;;27.00;53.90;;;;;;4996604;28;20041;-72
2024/04/01 12:03:19;;;;;;;25.70;5.53;;;27.10;54.90;;;;;;4996396;28;20033;-72
2024/04/01 12:05:48;;;;;;;34.17;5.55;;;27.20;54.80;;;;;;4996260;28;20034;-72
2024/04/01 12:08:25;;;;;;;40.53;6.80;;;27.30;56.60;;;;;;4995930;28;20037;-73
2024/04/01 12:10:52;;;;;;;58.42;7.43;;;27.40;54.60;;;;;;4996455;28;20034;-72
2024/04/01 12:13:28;;;;;;;40.58;6.07;;;27.30;53.90;;;;;;4996342;28;20476;-72
2024/04/01 12:15:55;;;;;;;39.75;6.05;;;27.30;54.40;;;;;;4995903;28;20027;-72
2024/04/01 12:18:23;;;;;;;41.90;6.57;;;27.30;55.80;;;;;;4995885;28;20034;-72
2024/04/01 12:20:56;;;;;;;36.22;5.93;;;27.40;53.30;;;;;;4996543;28;20041;-72
2024/04/01 12:23:27;;;;;;;31.75;5.18;;;27.30;52.10;;;;;;4996059;28;20030;-72
2024/04/01 12:26:07;;;;;;;42.78;5.80;;;27.30;54.20;;;;;;4995985;28;20038;-72
2024/04/01 12:28:34;;;;;;;43.05;6.47;;;27.30;51.60;;;;;;4996494;28;20322;-73
2024/04/01 12:31:03;;;;;;;33.40;5.65;;;27.20;53.60;;;;;;4996063;28;20034;-73
2024/04/01 12:33:31;;;;;;;38.47;7.20;;;27.30;53.30;;;;;;4996095;28;20022;-72
2024/04/01 12:36:00;;;;;;;41.75;6.65;;;27.30;53.60;;;;;;4995540;28;20030;-72
2024/04/01 12:38:33;;;;;;;37.60;5.45;;;27.40;54.10;;;;;;4995752;28;20026;-73
2024/04/01 12:41:00;;;;;;;;;;;27.60;53.20;;;;;;4996186;28;20128;-72
2024/04/01 12:43:27;;;;;;;36.83;5.63;;;27.70;53.10;;;;;;4995474;28;19909;-73
2024/04/01 12:45:56;;;;;;;36.13;6.82;;;27.90;53.70;;;;;;4995422;28;20027;-72
2024/04/01 12:48:23;;;;;;;40.70;6.60;;;27.90;54.50;;;;;;4995122;28;20038;-72
2024/04/01 12:50:57;;;;;;;28.13;5.53;;;27.90;53.10;;;;;;4994821;28;20030;-73
2024/04/01 12:54:00;;;;;;;32.95;6.20;;;28.00;53.60;;;;;;4995953;28;20022;-72